Svartfoss — V2PR3 — position and weather

sailwx.info

Track history (hours):
 
Tides and Currents Weather Stations Pressure Air Temp Water Temp Dewpoint Dewpoint Depression Visibility Wind Speed Wind Dir Waves Ship Positions

Svartfoss

Last reported at 2015-Aug-27 17:31 UTC. Time now 2015-Aug-29 07:25 UTC.
Position N 67°23' E 013°45'.

Length 80 m; draft 5.2 m.

Type: Cargo ship. MMSI: 304882000.

Date/timePositionNaut miles runAvg speedWind from/ knotsBaromVisibWave heightAir tempDewpointWater temp
2015-Aug-27 17:31N 67°23' E 013°45'1313.6
2015-Aug-27 16:33N 67°18' E 014°16'3 3.1
2015-Aug-27 15:33N 67°17' E 014°24'0 0.0
2015-Aug-27 14:33N 67°17' E 014°24'7 6.8
2015-Aug-27 13:34N 67°14' E 014°09'1514.8
2015-Aug-27 12:33N 67°02' E 013°46'1513.7
2015-Aug-27 11:28N 66°51' E 013°19'10312.9
2015-Aug-27 03:30N 65°14' E 011°55'1414.9
2015-Aug-27 02:33N 65°01' E 011°41'1414.2
2015-Aug-27 01:34N 64°52' E 011°17'6111.2
2015-Aug-26 20:08N 64°00' E 010°01'711.6
2015-Aug-26 19:33N 63°57' E 009°49'1414.4
2015-Aug-26 18:33N 63°44' E 009°32'5914.6
2015-Aug-26 14:32N 63°10' E 007°46'4 3.6
2015-Aug-26 13:33N 63°07' E 007°44'  
2015-Aug-23 00:33N 59°53' E 005°32'1414.2
2015-Aug-22 23:33N 59°40' E 005°21'2713.6
2015-Aug-22 21:33N 59°13' E 005°21'1514.5
2015-Aug-22 20:33N 59°01' E 005°39'0 0.1
2015-Aug-22 19:33N 59°01' E 005°39'1211.7
2015-Aug-22 18:34N 58°50' E 005°30'1615.4
2015-Aug-22 17:33N 58°35' E 005°25'2017.0
2015-Aug-22 16:24N 58°15' E 005°23'6415.6
2015-Aug-22 12:17N 57°11' E 005°17'1115.6
2015-Aug-22 11:33N 57°00' E 005°16'16015.5
2015-Aug-22 01:12N 54°20' E 005°10'1015.5
2015-Aug-22 00:33N 54°10' E 005°09'1615.7
2015-Aug-21 23:33N 53°55' E 004°58'1615.6
2015-Aug-21 22:33N 53°40' E 004°51'1716.3
2015-Aug-21 21:29N 53°24' E 004°42'1717.3
2015-Aug-21 20:32N 53°08' E 004°32'1717.4
2015-Aug-21 19:33N 52°51' E 004°31'1717.2
2015-Aug-21 18:33N 52°34' E 004°31'7 7.0
2015-Aug-21 17:34N 52°28' E 004°36'2 2.2
2015-Aug-21 16:28N 52°28' E 004°40'0 0.0
2015-Aug-21 15:31N 52°28' E 004°40'0 0.0
2015-Aug-21 14:28N 52°28' E 004°40'0 0.0
2015-Aug-21 13:22N 52°28' E 004°40'0 0.0
2015-Aug-21 12:28N 52°28' E 004°40'0 0.0
2015-Aug-21 11:28N 52°28' E 004°40'0 0.0
2015-Aug-21 10:31N 52°28' E 004°40'0 0.0
2015-Aug-21 09:31N 52°28' E 004°40'0 0.0
2015-Aug-21 08:31N 52°28' E 004°40'0 0.0
2015-Aug-21 07:31N 52°28' E 004°40'0 0.0
2015-Aug-21 06:28N 52°28' E 004°40'0 0.0
2015-Aug-21 05:31N 52°28' E 004°40'0 0.0
2015-Aug-21 04:28N 52°28' E 004°40'0 0.0
2015-Aug-21 03:31N 52°28' E 004°40'0 0.0
2015-Aug-21 02:31N 52°28' E 004°40'0 0.0
2015-Aug-21 01:28N 52°28' E 004°40'0 0.0
2015-Aug-21 00:31N 52°28' E 004°40'0 0.0
2015-Aug-20 23:31N 52°28' E 004°40'0 0.0
2015-Aug-20 22:31N 52°28' E 004°40'0 0.0
2015-Aug-20 21:34N 52°28' E 004°40'0 0.0
2015-Aug-20 20:33N 52°28' E 004°40'0 0.0
2015-Aug-20 19:33N 52°28' E 004°40'2 2.4
2015-Aug-20 18:33N 52°28' E 004°36'4 3.7
2015-Aug-20 17:34N 52°29' E 004°30'1514.8
2015-Aug-20 16:33N 52°44' E 004°31'1716.1
2015-Aug-20 15:31N 53°01' E 004°32'29 5.4
2015-Aug-20 10:03N 53°30' E 004°32'0 0.0
2015-Aug-20 09:27N 53°30' E 004°32'5 5.4
2015-Aug-20 08:31N 53°34' E 004°38'1612.0
2015-Aug-20 07:12N 53°48' E 004°49'913.9
2015-Aug-20 06:33N 53°57' E 004°54'1514.3
2015-Aug-20 05:30N 54°10' E 005°06'26813.8
2015-Aug-19 10:05N 57°40' E 010°02'814.3
2015-Aug-19 09:33N 57°43' E 010°15'1414.4
2015-Aug-19 08:33N 57°47' E 010°41'1513.9
2015-Aug-19 07:29N 57°33' E 010°42'8 4.0
2015-Aug-19 05:33N 57°34' E 010°56'1313.1
2015-Aug-19 04:33N 57°31' E 011°20'1616.4
2015-Aug-19 03:33N 57°16' E 011°33'1716.8
2015-Aug-19 02:33N 57°00' E 011°44'1616.5
2015-Aug-19 01:33N 56°45' E 011°54'1816.5
2015-Aug-19 00:29N 56°27' E 012°01'1415.4
2015-Aug-18 23:33N 56°15' E 012°14'1818.1
2015-Aug-18 22:33N 56°04' E 012°39'1413.7
2015-Aug-18 21:33N 55°51' E 012°50'5 5.1
2015-Aug-18 20:34N 55°55' E 012°44'3 3.2
2015-Aug-18 19:34N 55°58' E 012°43'6 6.4
2015-Aug-18 18:33N 55°52' E 012°47'2 1.9
2015-Aug-18 17:33N 55°51' E 012°50'0 0.0
2015-Aug-18 16:33N 55°51' E 012°50'0 0.0
2015-Aug-18 15:33N 55°51' E 012°50'0 0.0
2015-Aug-18 14:33N 55°51' E 012°50'0 0.0
2015-Aug-18 13:33N 55°51' E 012°50'0 0.0
2015-Aug-18 12:33N 55°51' E 012°50'0 0.0
2015-Aug-18 11:33N 55°51' E 012°50'0 0.0
2015-Aug-18 10:33N 55°51' E 012°50'0 0.0
2015-Aug-18 09:33N 55°51' E 012°50'0 0.0
2015-Aug-18 08:33N 55°51' E 012°50'0 0.0
2015-Aug-18 07:33N 55°51' E 012°50'0 0.0
2015-Aug-18 06:33N 55°51' E 012°50'0 0.0
2015-Aug-18 05:33N 55°51' E 012°50'0 0.0
2015-Aug-18 04:33N 55°51' E 012°50'0 0.0
2015-Aug-18 04:09N 55°51' E 012°50'0 0.1
2015-Aug-18 04:06N 55°51' E 012°50'0 0.0
2015-Aug-18 03:33N 55°51' E 012°50'0 0.0
2015-Aug-18 02:33N 55°51' E 012°50'0 0.0
2015-Aug-18 01:33N 55°51' E 012°50'0 0.0
2015-Aug-18 00:33N 55°51' E 012°50'0 0.0
2015-Aug-17 23:33N 55°51' E 012°50'0 0.0
2015-Aug-17 22:33N 55°51' E 012°50'0 0.3
2015-Aug-17 21:33N 55°52' E 012°50'0 0.0
2015-Aug-17 20:33N 55°52' E 012°50'0 0.0
2015-Aug-17 19:33N 55°52' E 012°50'0 0.0
2015-Aug-17 18:30N 55°52' E 012°50'0 0.0
2015-Aug-17 17:32N 55°52' E 012°50'  
Track history (hours):
 
Tides and Currents Weather Stations Pressure Air Temp Water Temp Dewpoint Dewpoint Depression Visibility Wind Speed Wind Dir Waves Ship Positions

Svartfoss

Last reported at 2015-Aug-27 17:31 UTC. Time now 2015-Aug-29 07:25 UTC.
Position N 67°23' E 013°45'.

Length 80 m; draft 5.2 m.

Type: Cargo ship. MMSI: 304882000.

Date/timePositionNaut miles runAvg speedWind from/ knotsBaromVisibWave heightAir tempDewpointWater temp
2015-Aug-27 17:31N 67°23' E 013°45'1313.6
2015-Aug-27 16:33N 67°18' E 014°16'3 3.1
2015-Aug-27 15:33N 67°17' E 014°24'0 0.0
2015-Aug-27 14:33N 67°17' E 014°24'7 6.8
2015-Aug-27 13:34N 67°14' E 014°09'1514.8
2015-Aug-27 12:33N 67°02' E 013°46'1513.7
2015-Aug-27 11:28N 66°51' E 013°19'10312.9
2015-Aug-27 03:30N 65°14' E 011°55'1414.9
2015-Aug-27 02:33N 65°01' E 011°41'1414.2
2015-Aug-27 01:34N 64°52' E 011°17'6111.2
2015-Aug-26 20:08N 64°00' E 010°01'711.6
2015-Aug-26 19:33N 63°57' E 009°49'1414.4
2015-Aug-26 18:33N 63°44' E 009°32'5914.6
2015-Aug-26 14:32N 63°10' E 007°46'4 3.6
2015-Aug-26 13:33N 63°07' E 007°44'  
2015-Aug-23 00:33N 59°53' E 005°32'1414.2
2015-Aug-22 23:33N 59°40' E 005°21'2713.6
2015-Aug-22 21:33N 59°13' E 005°21'1514.5
2015-Aug-22 20:33N 59°01' E 005°39'0 0.1
2015-Aug-22 19:33N 59°01' E 005°39'1211.7
2015-Aug-22 18:34N 58°50' E 005°30'1615.4
2015-Aug-22 17:33N 58°35' E 005°25'2017.0
2015-Aug-22 16:24N 58°15' E 005°23'6415.6
2015-Aug-22 12:17N 57°11' E 005°17'1115.6
2015-Aug-22 11:33N 57°00' E 005°16'16015.5
2015-Aug-22 01:12N 54°20' E 005°10'1015.5
2015-Aug-22 00:33N 54°10' E 005°09'1615.7
2015-Aug-21 23:33N 53°55' E 004°58'1615.6
2015-Aug-21 22:33N 53°40' E 004°51'1716.3
2015-Aug-21 21:29N 53°24' E 004°42'1717.3
2015-Aug-21 20:32N 53°08' E 004°32'1717.4
2015-Aug-21 19:33N 52°51' E 004°31'1717.2
2015-Aug-21 18:33N 52°34' E 004°31'7 7.0
2015-Aug-21 17:34N 52°28' E 004°36'2 2.2
2015-Aug-21 16:28N 52°28' E 004°40'0 0.0
2015-Aug-21 15:31N 52°28' E 004°40'0 0.0
2015-Aug-21 14:28N 52°28' E 004°40'0 0.0
2015-Aug-21 13:22N 52°28' E 004°40'0 0.0
2015-Aug-21 12:28N 52°28' E 004°40'0 0.0
2015-Aug-21 11:28N 52°28' E 004°40'0 0.0
2015-Aug-21 10:31N 52°28' E 004°40'0 0.0
2015-Aug-21 09:31N 52°28' E 004°40'0 0.0
2015-Aug-21 08:31N 52°28' E 004°40'0 0.0
2015-Aug-21 07:31N 52°28' E 004°40'0 0.0
2015-Aug-21 06:28N 52°28' E 004°40'0 0.0
2015-Aug-21 05:31N 52°28' E 004°40'0 0.0
2015-Aug-21 04:28N 52°28' E 004°40'0 0.0
2015-Aug-21 03:31N 52°28' E 004°40'0 0.0
2015-Aug-21 02:31N 52°28' E 004°40'0 0.0
2015-Aug-21 01:28N 52°28' E 004°40'0 0.0
2015-Aug-21 00:31N 52°28' E 004°40'0 0.0
2015-Aug-20 23:31N 52°28' E 004°40'0 0.0
2015-Aug-20 22:31N 52°28' E 004°40'0 0.0
2015-Aug-20 21:34N 52°28' E 004°40'0 0.0
2015-Aug-20 20:33N 52°28' E 004°40'0 0.0
2015-Aug-20 19:33N 52°28' E 004°40'2 2.4
2015-Aug-20 18:33N 52°28' E 004°36'4 3.7
2015-Aug-20 17:34N 52°29' E 004°30'1514.8
2015-Aug-20 16:33N 52°44' E 004°31'1716.1
2015-Aug-20 15:31N 53°01' E 004°32'29 5.4
2015-Aug-20 10:03N 53°30' E 004°32'0 0.0
2015-Aug-20 09:27N 53°30' E 004°32'5 5.4
2015-Aug-20 08:31N 53°34' E 004°38'1612.0
2015-Aug-20 07:12N 53°48' E 004°49'913.9
2015-Aug-20 06:33N 53°57' E 004°54'1514.3
2015-Aug-20 05:30N 54°10' E 005°06'26813.8
2015-Aug-19 10:05N 57°40' E 010°02'814.3
2015-Aug-19 09:33N 57°43' E 010°15'1414.4
2015-Aug-19 08:33N 57°47' E 010°41'1513.9
2015-Aug-19 07:29N 57°33' E 010°42'8 4.0
2015-Aug-19 05:33N 57°34' E 010°56'1313.1
2015-Aug-19 04:33N 57°31' E 011°20'1616.4
2015-Aug-19 03:33N 57°16' E 011°33'1716.8
2015-Aug-19 02:33N 57°00' E 011°44'1616.5
2015-Aug-19 01:33N 56°45' E 011°54'1816.5
2015-Aug-19 00:29N 56°27' E 012°01'1415.4
2015-Aug-18 23:33N 56°15' E 012°14'1818.1
2015-Aug-18 22:33N 56°04' E 012°39'1413.7
2015-Aug-18 21:33N 55°51' E 012°50'5 5.1
2015-Aug-18 20:34N 55°55' E 012°44'3 3.2
2015-Aug-18 19:34N 55°58' E 012°43'6 6.4
2015-Aug-18 18:33N 55°52' E 012°47'2 1.9
2015-Aug-18 17:33N 55°51' E 012°50'0 0.0
2015-Aug-18 16:33N 55°51' E 012°50'0 0.0
2015-Aug-18 15:33N 55°51' E 012°50'0 0.0
2015-Aug-18 14:33N 55°51' E 012°50'0 0.0
2015-Aug-18 13:33N 55°51' E 012°50'0 0.0
2015-Aug-18 12:33N 55°51' E 012°50'0 0.0
2015-Aug-18 11:33N 55°51' E 012°50'0 0.0
2015-Aug-18 10:33N 55°51' E 012°50'0 0.0
2015-Aug-18 09:33N 55°51' E 012°50'0 0.0
2015-Aug-18 08:33N 55°51' E 012°50'0 0.0
2015-Aug-18 07:33N 55°51' E 012°50'0 0.0
2015-Aug-18 06:33N 55°51' E 012°50'0 0.0
2015-Aug-18 05:33N 55°51' E 012°50'0 0.0
2015-Aug-18 04:33N 55°51' E 012°50'0 0.0
2015-Aug-18 04:09N 55°51' E 012°50'0 0.1
2015-Aug-18 04:06N 55°51' E 012°50'0 0.0
2015-Aug-18 03:33N 55°51' E 012°50'0 0.0
2015-Aug-18 02:33N 55°51' E 012°50'0 0.0
2015-Aug-18 01:33N 55°51' E 012°50'0 0.0
2015-Aug-18 00:33N 55°51' E 012°50'0 0.0
2015-Aug-17 23:33N 55°51' E 012°50'0 0.0
2015-Aug-17 22:33N 55°51' E 012°50'0 0.3
2015-Aug-17 21:33N 55°52' E 012°50'0 0.0
2015-Aug-17 20:33N 55°52' E 012°50'0 0.0
2015-Aug-17 19:33N 55°52' E 012°50'0 0.0
2015-Aug-17 18:30N 55°52' E 012°50'0 0.0
2015-Aug-17 17:32N 55°52' E 012°50'  

Dump ship's entire track history